sensor_id;sensor_type;location;lat;lon;timestamp;pressure;altitude;pressure_sealevel;temperature;humidity
11347;BME280;5728;42.722;23.258;2024-03-06T00:01:57;94526.72;;;6.64;90.49
11347;BME280;5728;42.722;23.258;2024-03-06T00:04:25;94526.66;;;6.79;88.71
11347;BME280;5728;42.722;23.258;2024-03-06T00:06:53;94526.66;;;6.70;91.63
11347;BME280;5728;42.722;23.258;2024-03-06T00:09:21;94522.59;;;6.15;92.74
11347;BME280;5728;42.722;23.258;2024-03-06T00:11:48;94516.53;;;6.31;94.18
11347;BME280;5728;42.722;23.258;2024-03-06T00:14:16;94514.84;;;6.24;94.27
11347;BME280;5728;42.722;23.258;2024-03-06T00:16:43;94515.75;;;6.14;93.61
11347;BME280;5728;42.722;23.258;2024-03-06T00:19:10;94518.31;;;6.11;93.72
11347;BME280;5728;42.722;23.258;2024-03-06T00:21:39;94512.28;;;6.24;92.90
11347;BME280;5728;42.722;23.258;2024-03-06T00:24:06;94519.97;;;6.30;93.31
11347;BME280;5728;42.722;23.258;2024-03-06T00:26:33;94526.06;;;5.96;93.86
11347;BME280;5728;42.722;23.258;2024-03-06T00:29:00;94520.06;;;5.98;93.81
11347;BME280;5728;42.722;23.258;2024-03-06T00:31:27;94518.34;;;6.03;94.33
11347;BME280;5728;42.722;23.258;2024-03-06T00:33:54;94521.78;;;5.82;94.77
11347;BME280;5728;42.722;23.258;2024-03-06T00:36:21;94528.66;;;5.65;95.51
11347;BME280;5728;42.722;23.258;2024-03-06T00:38:50;94525.22;;;5.66;96.74
11347;BME280;5728;42.722;23.258;2024-03-06T00:41:17;94523.50;;;5.41;97.57
11347;BME280;5728;42.722;23.258;2024-03-06T00:43:44;94529.50;;;5.34;98.41
11347;BME280;5728;42.722;23.258;2024-03-06T00:46:11;94523.50;;;5.25;98.88
11347;BME280;5728;42.722;23.258;2024-03-06T00:48:38;94528.56;;;4.75;99.12
11347;BME280;5728;42.722;23.258;2024-03-06T00:51:05;94525.13;;;4.61;100.00
11347;BME280;5728;42.722;23.258;2024-03-06T00:53:32;94521.66;;;4.59;99.41
11347;BME280;5728;42.722;23.258;2024-03-06T00:56:02;94525.03;;;4.39;99.39
11347;BME280;5728;42.722;23.258;2024-03-06T00:58:29;94542.09;;;4.28;100.00
11347;BME280;5728;42.722;23.258;2024-03-06T01:00:56;94529.22;;;4.16;100.00
11347;BME280;5728;42.722;23.258;2024-03-06T01:03:24;94528.50;;;4.47;100.00
11347;BME280;5728;42.722;23.258;2024-03-06T01:05:51;94523.38;;;4.50;100.00
11347;BME280;5728;42.722;23.258;2024-03-06T01:08:18;94528.41;;;4.29;100.00
11347;BME280;5728;42.722;23.258;2024-03-06T01:10:45;94525.03;;;4.39;100.00
11347;BME280;5728;42.722;23.258;2024-03-06T01:13:14;94535.34;;;4.45;100.00
11347;BME280;5728;42.722;23.258;2024-03-06T01:15:41;94533.47;;;4.14;100.00
11347;BME280;5728;42.722;23.258;2024-03-06T01:18:08;94531.84;;;4.31;100.00
11347;BME280;5728;42.722;23.258;2024-03-06T01:20:35;94524.94;;;4.18;100.00
11347;BME280;5728;42.722;23.258;2024-03-06T01:23:02;94530.91;;;4.11;100.00
11347;BME280;5728;42.722;23.258;2024-03-06T01:25:29;94540.09;;;3.76;100.00
11347;BME280;5728;42.722;23.258;2024-03-06T01:27:56;94538.50;;;3.92;100.00
11347;BME280;5728;42.722;23.258;2024-03-06T01:30:25;94523.19;;;4.11;100.00
11347;BME280;5728;42.722;23.258;2024-03-06T01:32:52;94528.38;;;4.22;100.00
11347;BME280;5728;42.722;23.258;2024-03-06T01:35:19;94519.00;;;4.31;100.00
11347;BME280;5728;42.722;23.258;2024-03-06T01:37:46;94516.53;;;4.59;100.00
11347;BME280;5728;42.722;23.258;2024-03-06T01:40:13;94499.50;;;4.76;100.00
11347;BME280;5728;42.722;23.258;2024-03-06T01:42:40;94514.06;;;5.02;100.00
11347;BME280;5728;42.722;23.258;2024-03-06T01:45:08;94521.78;;;5.07;100.00
11347;BME280;5728;42.722;23.258;2024-03-06T01:47:36;94526.06;;;5.05;100.00
11347;BME280;5728;42.722;23.258;2024-03-06T01:50:05;94522.69;;;5.41;100.00
11347;BME280;5728;42.722;23.258;2024-03-06T01:52:35;94525.22;;;5.51;99.60
11347;BME280;5728;42.722;23.258;2024-03-06T01:55:03;94531.22;;;5.62;99.13
11347;BME280;5728;42.722;23.258;2024-03-06T01:57:31;94530.34;;;5.66;98.89
11347;BME280;5728;42.722;23.258;2024-03-06T02:00:00;94530.38;;;5.72;98.35
11347;BME280;5728;42.722;23.258;2024-03-06T02:02:27;94538.09;;;5.65;99.00
11347;BME280;5728;42.722;23.258;2024-03-06T02:04:55;94524.34;;;5.75;98.45
11347;BME280;5728;42.722;23.258;2024-03-06T02:07:25;94543.19;;;5.81;97.79
11347;BME280;5728;42.722;23.258;2024-03-06T02:09:52;94528.66;;;5.90;96.76
11347;BME280;5728;42.722;23.258;2024-03-06T02:12:19;94533.81;;;5.99;95.77
11347;BME280;5728;42.722;23.258;2024-03-06T02:14:46;94528.66;;;5.90;96.12
11347;BME280;5728;42.722;23.258;2024-03-06T02:17:13;94536.34;;;6.08;95.24
11347;BME280;5728;42.722;23.258;2024-03-06T02:19:40;94543.22;;;5.69;93.80
11347;BME280;5728;42.722;23.258;2024-03-06T02:22:10;94547.53;;;5.51;95.19
11347;BME280;5728;42.722;23.258;2024-03-06T02:24:42;94538.94;;;5.35;96.34
11347;BME280;5728;42.722;23.258;2024-03-06T02:27:09;94556.09;;;5.65;96.27
11347;BME280;5728;42.722;23.258;2024-03-06T02:29:36;94545.78;;;5.51;94.91
11347;BME280;5728;42.722;23.258;2024-03-06T02:32:03;94545.81;;;5.42;95.86
11347;BME280;5728;42.722;23.258;2024-03-06T02:34:30;94556.06;;;5.39;96.83
11347;BME280;5728;42.722;23.258;2024-03-06T02:36:57;94550.94;;;5.54;96.27
11347;BME280;5728;42.722;23.258;2024-03-06T02:39:26;94554.38;;;5.59;95.66
11347;BME280;5728;42.722;23.258;2024-03-06T02:41:53;94558.66;;;5.59;95.61
11347;BME280;5728;42.722;23.258;2024-03-06T02:44:20;94562.94;;;5.64;95.83
11347;BME280;5728;42.722;23.258;2024-03-06T02:46:47;94551.81;;;5.68;94.79
11347;BME280;5728;42.722;23.258;2024-03-06T02:49:15;94551.81;;;5.84;93.93
11347;BME280;5728;42.722;23.258;2024-03-06T02:51:42;94559.53;;;5.84;93.60
11347;BME280;5728;42.722;23.258;2024-03-06T02:54:09;94563.81;;;5.83;93.45
11347;BME280;5728;42.722;23.258;2024-03-06T02:56:37;94561.25;;;5.78;93.94
11347;BME280;5728;42.722;23.258;2024-03-06T02:59:04;94567.25;;;5.96;93.10
11347;BME280;5728;42.722;23.258;2024-03-06T03:01:31;94567.22;;;5.74;93.34
11347;BME280;5728;42.722;23.258;2024-03-06T03:03:58;94565.53;;;5.66;93.37
11347;BME280;5728;42.722;23.258;2024-03-06T03:06:25;94551.78;;;5.59;93.48
11347;BME280;5728;42.722;23.258;2024-03-06T03:08:52;94556.94;;;5.67;93.02
11347;BME280;5728;42.722;23.258;2024-03-06T03:11:19;94567.22;;;5.47;93.59
11347;BME280;5728;42.722;23.258;2024-03-06T03:13:47;94562.94;;;5.40;95.37
11347;BME280;5728;42.722;23.258;2024-03-06T03:16:18;94565.50;;;5.25;95.45
11347;BME280;5728;42.722;23.258;2024-03-06T03:18:46;94568.94;;;5.23;95.10
11347;BME280;5728;42.722;23.258;2024-03-06T03:21:13;94571.50;;;5.36;94.59
11347;BME280;5728;42.722;23.258;2024-03-06T03:23:40;94572.38;;;5.46;93.35
11347;BME280;5728;42.722;23.258;2024-03-06T03:26:07;94569.81;;;5.46;91.66
11347;BME280;5728;42.722;23.258;2024-03-06T03:28:37;94571.53;;;5.57;90.53
11347;BME280;5728;42.722;23.258;2024-03-06T03:31:07;94574.06;;;5.39;90.97
11347;BME280;5728;42.722;23.258;2024-03-06T03:33:34;94581.75;;;5.21;91.60
11347;BME280;5728;42.722;23.258;2024-03-06T03:36:04;94577.50;;;5.34;91.50
11347;BME280;5728;42.722;23.258;2024-03-06T03:38:32;94568.09;;;5.33;91.93
11347;BME280;5728;42.722;23.258;2024-03-06T03:41:01;94574.09;;;5.33;92.33
11347;BME280;5728;42.722;23.258;2024-03-06T03:43:29;94573.25;;;5.43;91.37
11347;BME280;5728;42.722;23.258;2024-03-06T03:45:58;94573.22;;;5.52;90.18
11347;BME280;5728;42.722;23.258;2024-03-06T03:48:26;94580.09;;;5.47;90.54
11347;BME280;5728;42.722;23.258;2024-03-06T03:50:53;94584.38;;;5.38;90.94
11347;BME280;5728;42.722;23.258;2024-03-06T03:53:20;94580.91;;;5.24;91.63
11347;BME280;5728;42.722;23.258;2024-03-06T03:55:47;94591.13;;;4.87;92.40
11347;BME280;5728;42.722;23.258;2024-03-06T03:58:14;94588.50;;;4.77;93.04
11347;BME280;5728;42.722;23.258;2024-03-06T04:00:41;94588.53;;;4.80;93.50
11347;BME280;5728;42.722;23.258;2024-03-06T04:03:08;94590.25;;;4.91;92.69
11347;BME280;5728;42.722;23.258;2024-03-06T04:05:36;94582.56;;;4.99;91.78
11347;BME280;5728;42.722;23.258;2024-03-06T04:08:04;94589.44;;;4.98;91.16
11347;BME280;5728;42.722;23.258;2024-03-06T04:10:31;94566.25;;;4.79;91.17
11347;BME280;5728;42.722;23.258;2024-03-06T04:12:59;94597.19;;;5.06;92.15
11347;BME280;5728;42.722;23.258;2024-03-06T04:15:26;94597.16;;;5.03;91.06
11347;BME280;5728;42.722;23.258;2024-03-06T04:17:53;94592.03;;;5.06;91.32
11347;BME280;5728;42.722;23.258;2024-03-06T04:20:20;94604.84;;;4.97;91.08
11347;BME280;5728;42.722;23.258;2024-03-06T04:22:49;94609.16;;;5.14;91.46
11347;BME280;5728;42.722;23.258;2024-03-06T04:25:17;94609.13;;;4.98;91.34
11347;BME280;5728;42.722;23.258;2024-03-06T04:27:44;94620.31;;;5.12;91.98
11347;BME280;5728;42.722;23.258;2024-03-06T04:30:12;94623.72;;;5.00;92.68
11347;BME280;5728;42.722;23.258;2024-03-06T04:32:39;94628.88;;;5.08;92.39
11347;BME280;5728;42.722;23.258;2024-03-06T04:35:07;94630.59;;;5.13;93.31
11347;BME280;5728;42.722;23.258;2024-03-06T04:37:35;94637.47;;;5.22;93.63
11347;BME280;5728;42.722;23.258;2024-03-06T04:40:05;94643.47;;;5.27;92.26
11347;BME280;5728;42.722;23.258;2024-03-06T04:42:33;94626.31;;;5.17;92.27
11347;BME280;5728;42.722;23.258;2024-03-06T04:45:01;94646.88;;;5.20;92.36
11347;BME280;5728;42.722;23.258;2024-03-06T04:47:29;94629.75;;;5.21;92.92
11347;BME280;5728;42.722;23.258;2024-03-06T04:49:57;94633.19;;;5.18;92.57
11347;BME280;5728;42.722;23.258;2024-03-06T04:52:24;94623.75;;;5.22;92.25
11347;BME280;5728;42.722;23.258;2024-03-06T04:54:51;94626.31;;;5.17;92.52
11347;BME280;5728;42.722;23.258;2024-03-06T04:57:20;94626.31;;;5.20;92.85
11347;BME280;5728;42.722;23.258;2024-03-06T04:59:47;94631.47;;;5.29;92.76
11347;BME280;5728;42.722;23.258;2024-03-06T05:02:13;94642.59;;;5.27;92.95
11347;BME280;5728;42.722;23.258;2024-03-06T05:04:40;94622.91;;;5.36;92.75
11347;BME280;5728;42.722;23.258;2024-03-06T05:07:08;94638.38;;;5.48;92.58
11347;BME280;5728;42.722;23.258;2024-03-06T05:09:35;94636.69;;;5.53;92.51
11347;BME280;5728;42.722;23.258;2024-03-06T05:12:02;94637.53;;;5.58;91.36
11347;BME280;5728;42.722;23.258;2024-03-06T05:14:32;94658.94;;;5.59;91.79
11347;BME280;5728;42.722;23.258;2024-03-06T05:16:59;94645.22;;;5.40;93.04
11347;BME280;5728;42.722;23.258;2024-03-06T05:19:26;94641.78;;;5.44;92.83
11347;BME280;5728;42.722;23.258;2024-03-06T05:21:57;94639.25;;;5.64;92.05
11347;BME280;5728;42.722;23.258;2024-03-06T05:24:24;94640.97;;;5.63;92.37
11347;BME280;5728;42.722;23.258;2024-03-06T05:26:51;94643.56;;;5.63;93.06
11347;BME280;5728;42.722;23.258;2024-03-06T05:29:18;94656.41;;;5.65;91.77
11347;BME280;5728;42.722;23.258;2024-03-06T05:31:46;94646.13;;;5.71;93.16
11347;BME280;5728;42.722;23.258;2024-03-06T05:34:13;94641.00;;;5.85;93.93
11347;BME280;5728;42.722;23.258;2024-03-06T05:36:40;94651.84;;;4.72;93.42
11347;BME280;5728;42.722;23.258;2024-03-06T05:39:07;94644.13;;;4.70;96.98
11347;BME280;5728;42.722;23.258;2024-03-06T05:41:38;94652.72;;;4.75;98.30
11347;BME280;5728;42.722;23.258;2024-03-06T05:44:05;94655.38;;;5.04;98.73
11347;BME280;5728;42.722;23.258;2024-03-06T05:46:32;94658.88;;;5.24;97.67
11347;BME280;5728;42.722;23.258;2024-03-06T05:49:00;94655.44;;;5.13;96.55
11347;BME280;5728;42.722;23.258;2024-03-06T05:51:28;94664.03;;;5.23;96.05
11347;BME280;5728;42.722;23.258;2024-03-06T05:53:55;94657.25;;;5.53;95.43
11347;BME280;5728;42.722;23.258;2024-03-06T05:56:22;94666.66;;;5.42;94.96
11347;BME280;5728;42.722;23.258;2024-03-06T05:58:49;94668.38;;;5.61;95.98
11347;BME280;5728;42.722;23.258;2024-03-06T06:01:16;94672.72;;;5.87;95.66
11347;BME280;5728;42.722;23.258;2024-03-06T06:03:45;94672.75;;;6.09;94.28
11347;BME280;5728;42.722;23.258;2024-03-06T06:06:14;94673.59;;;6.31;94.12
11347;BME280;5728;42.722;23.258;2024-03-06T06:08:41;94669.28;;;6.50;93.60
11347;BME280;5728;42.722;23.258;2024-03-06T06:11:09;94674.41;;;6.66;91.22
11347;BME280;5728;42.722;23.258;2024-03-06T06:13:36;94683.00;;;6.50;91.15
11347;BME280;5728;42.722;23.258;2024-03-06T06:16:04;94703.63;;;6.53;92.54
11347;BME280;5728;42.722;23.258;2024-03-06T06:18:31;94670.94;;;6.67;92.63
11347;BME280;5728;42.722;23.258;2024-03-06T06:20:59;94675.16;;;7.00;89.23
11347;BME280;5728;42.722;23.258;2024-03-06T06:23:27;94668.34;;;6.85;90.13
11347;BME280;5728;42.722;23.258;2024-03-06T06:25:54;94670.84;;;7.00;90.80
11347;BME280;5728;42.722;23.258;2024-03-06T06:28:21;94667.41;;;7.06;90.79
11347;BME280;5728;42.722;23.258;2024-03-06T06:30:49;94685.41;;;7.21;89.89
11347;BME280;5728;42.722;23.258;2024-03-06T06:33:18;94675.06;;;7.27;89.10
11347;BME280;5728;42.722;23.258;2024-03-06T06:35:46;94682.78;;;7.29;88.85
11347;BME280;5728;42.722;23.258;2024-03-06T06:38:13;94675.00;;;7.39;89.29
11347;BME280;5728;42.722;23.258;2024-03-06T06:40:41;94673.13;;;7.70;89.55
11347;BME280;5728;42.722;23.258;2024-03-06T06:43:08;94685.97;;;7.73;87.63
11347;BME280;5728;42.722;23.258;2024-03-06T06:45:35;94670.34;;;7.97;87.42
11347;BME280;5728;42.722;23.258;2024-03-06T06:48:03;94672.31;;;7.59;87.39
11347;BME280;5728;42.722;23.258;2024-03-06T06:50:30;94664.47;;;7.77;86.94
11347;BME280;5728;42.722;23.258;2024-03-06T06:52:59;94688.56;;;7.75;85.70
11347;BME280;5728;42.722;23.258;2024-03-06T06:55:26;94670.34;;;7.97;87.04
11347;BME280;5728;42.722;23.258;2024-03-06T06:57:54;94663.38;;;8.07;85.51
11347;BME280;5728;42.722;23.258;2024-03-06T07:00:23;94677.03;;;8.25;87.29
11347;BME280;5728;42.722;23.258;2024-03-06T07:02:50;94681.34;;;8.28;85.79
11347;BME280;5728;42.722;23.258;2024-03-06T07:05:18;94684.75;;;8.28;84.94
11347;BME280;5728;42.722;23.258;2024-03-06T07:07:45;94683.75;;;8.48;84.00
11347;BME280;5728;42.722;23.258;2024-03-06T07:10:12;94687.06;;;8.59;83.79
11347;BME280;5728;42.722;23.258;2024-03-06T07:12:40;94676.72;;;8.62;83.64
11347;BME280;5728;42.722;23.258;2024-03-06T07:15:08;94684.47;;;8.62;84.15
11347;BME280;5728;42.722;23.258;2024-03-06T07:17:35;94682.75;;;8.61;82.04
11347;BME280;5728;42.722;23.258;2024-03-06T07:20:03;94685.88;;;8.91;83.66
11347;BME280;5728;42.722;23.258;2024-03-06T07:22:34;94690.22;;;8.91;82.17
11347;BME280;5728;42.722;23.258;2024-03-06T07:25:01;94686.91;;;8.77;82.73
11347;BME280;5728;42.722;23.258;2024-03-06T07:27:28;94681.94;;;9.36;79.56
11347;BME280;5728;42.722;23.258;2024-03-06T07:29:55;94681.06;;;9.34;80.55
11347;BME280;5728;42.722;23.258;2024-03-06T07:32:23;94677.97;;;9.05;79.61
11347;BME280;5728;42.722;23.258;2024-03-06T07:34:50;94684.94;;;9.00;81.92
11347;BME280;5728;42.722;23.258;2024-03-06T07:37:17;94674.97;;;9.40;81.76
11347;BME280;5728;42.722;23.258;2024-03-06T07:39:44;94674.00;;;9.47;80.84
11347;BME280;5728;42.722;23.258;2024-03-06T07:42:12;94673.84;;;9.60;80.54
11347;BME280;5728;42.722;23.258;2024-03-06T07:44:41;94667.34;;;9.93;79.93
11347;BME280;5728;42.722;23.258;2024-03-06T07:47:08;94672.84;;;10.30;79.92
11347;BME280;5728;42.722;23.258;2024-03-06T07:49:36;94676.06;;;10.44;78.11
11347;BME280;5728;42.722;23.258;2024-03-06T07:52:03;94689.41;;;10.21;76.87
11347;BME280;5728;42.722;23.258;2024-03-06T07:54:30;94675.06;;;9.95;77.85
11347;BME280;5728;42.722;23.258;2024-03-06T07:56:58;94712.84;;;10.11;78.38
11347;BME280;5728;42.722;23.258;2024-03-06T07:59:25;94673.94;;;10.15;77.94
11347;BME280;5728;42.722;23.258;2024-03-06T08:01:52;94665.59;;;10.50;77.14
11347;BME280;5728;42.722;23.258;2024-03-06T08:04:21;94689.97;;;10.89;76.40
11347;BME280;5728;42.722;23.258;2024-03-06T08:06:50;94675.75;;;10.64;76.17
11347;BME280;5728;42.722;23.258;2024-03-06T08:09:17;94677.41;;;11.14;74.77
11347;BME280;5728;42.722;23.258;2024-03-06T08:11:44;94678.59;;;11.40;73.33
11347;BME280;5728;42.722;23.258;2024-03-06T08:14:12;94675.31;;;11.32;73.63
11347;BME280;5728;42.722;23.258;2024-03-06T08:16:40;94676.31;;;11.68;73.05
11347;BME280;5728;42.722;23.258;2024-03-06T08:19:07;94683.03;;;11.35;73.24
11347;BME280;5728;42.722;23.258;2024-03-06T08:21:35;94677.75;;;11.40;73.75
11347;BME280;5728;42.722;23.258;2024-03-06T08:24:04;94683.44;;;12.00;71.52
11347;BME280;5728;42.722;23.258;2024-03-06T08:26:31;94699.84;;;12.39;70.88
11347;BME280;5728;42.722;23.258;2024-03-06T08:28:58;94674.56;;;12.79;71.92
11347;BME280;5728;42.722;23.258;2024-03-06T08:31:25;94677.25;;;13.11;68.88
11347;BME280;5728;42.722;23.258;2024-03-06T08:33:52;94689.75;;;12.62;67.74
11347;BME280;5728;42.722;23.258;2024-03-06T08:36:19;94684.22;;;13.09;68.79
11347;BME280;5728;42.722;23.258;2024-03-06T08:38:46;94684.72;;;12.56;68.43
11347;BME280;5728;42.722;23.258;2024-03-06T08:41:15;94679.16;;;12.69;68.31
11347;BME280;5728;42.722;23.258;2024-03-06T08:43:42;94682.88;;;13.27;67.56
11347;BME280;5728;42.722;23.258;2024-03-06T08:46:09;94674.44;;;14.08;64.93
11347;BME280;5728;42.722;23.258;2024-03-06T08:48:36;94681.88;;;13.32;64.83
11347;BME280;5728;42.722;23.258;2024-03-06T08:51:03;94682.25;;;14.10;63.92
11347;BME280;5728;42.722;23.258;2024-03-06T08:53:36;94708.81;;;14.21;61.45
11347;BME280;5728;42.722;23.258;2024-03-06T08:56:04;94676.38;;;14.31;67.45
11347;BME280;5728;42.722;23.258;2024-03-06T08:58:33;94682.38;;;14.34;62.03
11347;BME280;5728;42.722;23.258;2024-03-06T09:01:00;94680.88;;;14.53;65.07
11347;BME280;5728;42.722;23.258;2024-03-06T09:03:27;94677.25;;;14.30;63.35
11347;BME280;5728;42.722;23.258;2024-03-06T09:05:54;94672.13;;;14.81;59.86
11347;BME280;5728;42.722;23.258;2024-03-06T09:08:21;94672.03;;;14.84;61.20
11347;BME280;5728;42.722;23.258;2024-03-06T09:10:48;94678.91;;;15.12;60.98
11347;BME280;5728;42.722;23.258;2024-03-06T09:13:15;94676.13;;;14.92;58.29
11347;BME280;5728;42.722;23.258;2024-03-06T09:15:43;94683.63;;;15.52;59.53
11347;BME280;5728;42.722;23.258;2024-03-06T09:18:10;94679.44;;;15.47;57.97
11347;BME280;5728;42.722;23.258;2024-03-06T09:20:37;94677.88;;;16.12;55.79
11347;BME280;5728;42.722;23.258;2024-03-06T09:23:04;94673.13;;;16.00;55.27
11347;BME280;5728;42.722;23.258;2024-03-06T09:25:31;94672.31;;;15.98;55.60
11347;BME280;5728;42.722;23.258;2024-03-06T09:27:58;94673.22;;;16.20;60.46
11347;BME280;5728;42.722;23.258;2024-03-06T09:30:30;94671.69;;;15.91;54.97
11347;BME280;5728;42.722;23.258;2024-03-06T09:32:58;94668.50;;;15.36;57.85
11347;BME280;5728;42.722;23.258;2024-03-06T09:35:25;94665.44;;;16.62;56.05
11347;BME280;5728;42.722;23.258;2024-03-06T09:37:52;94673.00;;;16.91;52.75
11347;BME280;5728;42.722;23.258;2024-03-06T09:40:20;94657.75;;;17.41;51.32
11347;BME280;5728;42.722;23.258;2024-03-06T09:42:49;94653.56;;;18.15;50.43
11347;BME280;5728;42.722;23.258;2024-03-06T09:45:16;94661.88;;;17.47;51.09
11347;BME280;5728;42.722;23.258;2024-03-06T09:47:43;94658.84;;;16.30;52.50
11347;BME280;5728;42.722;23.258;2024-03-06T09:50:16;94660.72;;;16.92;51.26
11347;BME280;5728;42.722;23.258;2024-03-06T09:52:47;94655.97;;;17.21;49.79
11347;BME280;5728;42.722;23.258;2024-03-06T09:55:17;94657.72;;;16.14;51.35
11347;BME280;5728;42.722;23.258;2024-03-06T09:57:44;94654.22;;;16.15;52.76
11347;BME280;5728;42.722;23.258;2024-03-06T10:00:11;94641.56;;;16.48;52.53
11347;BME280;5728;42.722;23.258;2024-03-06T10:02:41;94640.72;;;17.31;51.56
11347;BME280;5728;42.722;23.258;2024-03-06T10:05:22;94634.91;;;18.02;51.21
11347;BME280;5728;42.722;23.258;2024-03-06T10:07:50;94631.47;;;18.00;48.13
11347;BME280;5728;42.722;23.258;2024-03-06T10:10:18;94640.22;;;17.82;49.70
11347;BME280;5728;42.722;23.258;2024-03-06T10:12:46;94633.47;;;18.32;46.65
11347;BME280;5728;42.722;23.258;2024-03-06T10:15:14;94663.53;;;18.25;46.06
11347;BME280;5728;42.722;23.258;2024-03-06T10:17:41;94629.50;;;18.05;48.14
11347;BME280;5728;42.722;23.258;2024-03-06T10:20:18;94624.44;;;18.57;46.72
11347;BME280;5728;42.722;23.258;2024-03-06T10:22:49;94625.22;;;18.59;46.18
11347;BME280;5728;42.722;23.258;2024-03-06T10:25:19;94627.28;;;19.39;45.85
11347;BME280;5728;42.722;23.258;2024-03-06T10:27:46;94629.06;;;19.39;47.37
11347;BME280;5728;42.722;23.258;2024-03-06T10:30:14;94613.38;;;19.20;42.96
11347;BME280;5728;42.722;23.258;2024-03-06T10:32:42;94608.63;;;19.44;42.61
11347;BME280;5728;42.722;23.258;2024-03-06T10:35:18;94614.41;;;19.67;41.42
11347;BME280;5728;42.722;23.258;2024-03-06T10:37:46;94605.47;;;19.20;41.79
11347;BME280;5728;42.722;23.258;2024-03-06T10:40:15;94609.66;;;19.07;43.97
11347;BME280;5728;42.722;23.258;2024-03-06T10:42:45;94604.06;;;19.30;42.47
11347;BME280;5728;42.722;23.258;2024-03-06T10:45:14;94605.13;;;19.93;41.01
11347;BME280;5728;42.722;23.258;2024-03-06T10:47:45;94597.84;;;19.65;41.49
11347;BME280;5728;42.722;23.258;2024-03-06T10:50:15;94591.69;;;19.98;40.92
11347;BME280;5728;42.722;23.258;2024-03-06T10:52:44;94585.66;;;19.47;40.53
11347;BME280;5728;42.722;23.258;2024-03-06T10:55:15;94586.63;;;18.95;41.96
11347;BME280;5728;42.722;23.258;2024-03-06T10:57:42;94576.84;;;19.14;41.47
11347;BME280;5728;42.722;23.258;2024-03-06T11:00:11;94566.53;;;17.68;43.05
11347;BME280;5728;42.722;23.258;2024-03-06T11:02:46;94575.88;;;16.76;46.59
11347;BME280;5728;42.722;23.258;2024-03-06T11:05:15;94565.03;;;17.23;50.40
11347;BME280;5728;42.722;23.258;2024-03-06T11:07:42;94557.44;;;17.75;45.76
11347;BME280;5728;42.722;23.258;2024-03-06T11:10:09;94561.16;;;17.71;45.51
11347;BME280;5728;42.722;23.258;2024-03-06T11:12:43;94551.84;;;16.86;45.35
11347;BME280;5728;42.722;23.258;2024-03-06T11:15:15;94551.56;;;17.12;45.48
11347;BME280;5728;42.722;23.258;2024-03-06T11:17:42;94537.94;;;17.04;47.47
11347;BME280;5728;42.722;23.258;2024-03-06T11:20:17;94544.75;;;18.39;44.46
11347;BME280;5728;42.722;23.258;2024-03-06T11:23:03;94530.50;;;18.96;40.83
11347;BME280;5728;42.722;23.258;2024-03-06T11:26:03;94529.28;;;19.68;39.98
11347;BME280;5728;42.722;23.258;2024-03-06T11:28:33;94533.19;;;19.93;38.27
11347;BME280;5728;42.722;23.258;2024-03-06T11:31:01;94526.97;;;20.56;37.20
11347;BME280;5728;42.722;23.258;2024-03-06T11:33:34;94524.16;;;20.59;36.40
11347;BME280;5728;42.722;23.258;2024-03-06T11:36:16;94518.66;;;20.48;36.70
11347;BME280;5728;42.722;23.258;2024-03-06T11:38:47;94525.47;;;20.21;36.03
11347;BME280;5728;42.722;23.258;2024-03-06T11:41:14;94518.16;;;18.98;38.03
11347;BME280;5728;42.722;23.258;2024-03-06T11:43:44;94505.94;;;19.62;37.73
11347;BME280;5728;42.722;23.258;2024-03-06T11:46:12;94520.09;;;19.27;37.99
11347;BME280;5728;42.722;23.258;2024-03-06T11:48:39;94522.53;;;19.47;36.96
11347;BME280;5728;42.722;23.258;2024-03-06T11:51:06;94509.16;;;20.30;36.88
11347;BME280;5728;42.722;23.258;2024-03-06T11:53:33;94510.66;;;21.37;34.21
11347;BME280;5728;42.722;23.258;2024-03-06T11:56:05;94501.34;;;21.88;34.33
11347;BME280;5728;42.722;23.258;2024-03-06T11:58:32;94499.97;;;22.09;32.63
11347;BME280;5728;42.722;23.258;2024-03-06T12:01:01;94500.41;;;21.61;33.87
11347;BME280;5728;42.722;23.258;2024-03-06T12:03:28;94500.94;;;21.10;35.23
11347;BME280;5728;42.722;23.258;2024-03-06T12:05:55;94502.03;;;20.91;35.43
11347;BME280;5728;42.722;23.258;2024-03-06T12:08:22;94500.47;;;20.73;35.41
11347;BME280;5728;42.722;23.258;2024-03-06T12:10:49;94503.16;;;20.58;34.83
11347;BME280;5728;42.722;23.258;2024-03-06T12:13:17;94492.91;;;20.22;39.15
11347;BME280;5728;42.722;23.258;2024-03-06T12:15:46;94488.78;;;20.63;36.51
11347;BME280;5728;42.722;23.258;2024-03-06T12:18:16;94492.13;;;20.51;36.06
11347;BME280;5728;42.722;23.258;2024-03-06T12:20:43;94490.97;;;20.41;35.56
11347;BME280;5728;42.722;23.258;2024-03-06T12:23:19;94483.16;;;20.40;35.55
11347;BME280;5728;42.722;23.258;2024-03-06T12:25:48;94487.91;;;20.92;34.04
11347;BME280;5728;42.722;23.258;2024-03-06T12:28:16;94481.31;;;20.26;35.00
11347;BME280;5728;42.722;23.258;2024-03-06T12:30:43;94487.94;;;20.02;36.61
11347;BME280;5728;42.722;23.258;2024-03-06T12:33:17;94519.38;;;19.08;42.47
11347;BME280;5728;42.722;23.258;2024-03-06T12:35:46;94476.78;;;18.16;45.43
11347;BME280;5728;42.722;23.258;2024-03-06T12:38:14;94476.25;;;17.55;46.85
11347;BME280;5728;42.722;23.258;2024-03-06T12:40:41;94484.72;;;17.04;49.19
11347;BME280;5728;42.722;23.258;2024-03-06T12:43:09;94484.66;;;16.85;50.69
11347;BME280;5728;42.722;23.258;2024-03-06T12:45:36;94481.66;;;16.74;51.60
11347;BME280;5728;42.722;23.258;2024-03-06T12:48:05;94478.72;;;17.58;48.87
11347;BME280;5728;42.722;23.258;2024-03-06T12:50:33;94478.88;;;18.09;47.03
11347;BME280;5728;42.722;23.258;2024-03-06T12:53:00;94479.31;;;17.64;50.57
11347;BME280;5728;42.722;23.258;2024-03-06T12:55:30;94473.88;;;18.22;47.71
11347;BME280;5728;42.722;23.258;2024-03-06T12:57:57;94483.53;;;18.56;47.65
11347;BME280;5728;42.722;23.258;2024-03-06T13:00:24;94486.25;;;18.54;46.16
11347;BME280;5728;42.722;23.258;2024-03-06T13:02:51;94483.03;;;18.30;45.69
11347;BME280;5728;42.722;23.258;2024-03-06T13:05:18;94483.38;;;18.24;45.59
11347;BME280;5728;42.722;23.258;2024-03-06T13:07:46;94490.50;;;18.04;44.20
11347;BME280;5728;42.722;23.258;2024-03-06T13:10:14;94509.28;;;17.59;45.95